sensor_id;sensor_type;location;lat;lon;timestamp;P1;durP1;ratioP1;P2;durP2;ratioP2
31818;SDS011;18384;48.860;9.188;2024-01-10T00:02:04;27.52;;;13.02;;
31818;SDS011;18384;48.860;9.188;2024-01-10T00:04:30;26.20;;;11.98;;
31818;SDS011;18384;48.860;9.188;2024-01-10T00:06:56;19.42;;;11.12;;
31818;SDS011;18384;48.860;9.188;2024-01-10T00:09:22;26.90;;;11.88;;
31818;SDS011;18384;48.860;9.188;2024-01-10T00:11:49;22.92;;;11.35;;
31818;SDS011;18384;48.860;9.188;2024-01-10T00:14:15;24.27;;;12.02;;
31818;SDS011;18384;48.860;9.188;2024-01-10T00:16:41;26.23;;;12.00;;
31818;SDS011;18384;48.860;9.188;2024-01-10T00:21:33;24.65;;;11.32;;
31818;SDS011;18384;48.860;9.188;2024-01-10T00:24:01;33.65;;;11.68;;
31818;SDS011;18384;48.860;9.188;2024-01-10T00:26:27;25.58;;;11.63;;
31818;SDS011;18384;48.860;9.188;2024-01-10T00:28:53;21.95;;;11.27;;
31818;SDS011;18384;48.860;9.188;2024-01-10T00:31:19;25.45;;;10.45;;
31818;SDS011;18384;48.860;9.188;2024-01-10T00:33:45;25.92;;;12.52;;
31818;SDS011;18384;48.860;9.188;2024-01-10T00:36:11;22.33;;;11.30;;
31818;SDS011;18384;48.860;9.188;2024-01-10T00:38:37;25.65;;;11.48;;
31818;SDS011;18384;48.860;9.188;2024-01-10T00:41:04;21.30;;;10.90;;
31818;SDS011;18384;48.860;9.188;2024-01-10T00:43:30;23.42;;;10.68;;
31818;SDS011;18384;48.860;9.188;2024-01-10T00:45:56;29.37;;;12.10;;
31818;SDS011;18384;48.860;9.188;2024-01-10T00:48:22;27.77;;;11.00;;
31818;SDS011;18384;48.860;9.188;2024-01-10T00:50:48;25.37;;;10.85;;
31818;SDS011;18384;48.860;9.188;2024-01-10T00:53:14;27.55;;;11.73;;
31818;SDS011;18384;48.860;9.188;2024-01-10T00:55:40;24.15;;;12.37;;
31818;SDS011;18384;48.860;9.188;2024-01-10T00:58:06;26.70;;;10.85;;
31818;SDS011;18384;48.860;9.188;2024-01-10T01:00:32;25.10;;;10.95;;
31818;SDS011;18384;48.860;9.188;2024-01-10T01:02:59;23.87;;;11.77;;
31818;SDS011;18384;48.860;9.188;2024-01-10T01:05:25;22.10;;;10.88;;
31818;SDS011;18384;48.860;9.188;2024-01-10T01:07:51;26.77;;;11.75;;
31818;SDS011;18384;48.860;9.188;2024-01-10T01:10:17;23.42;;;11.00;;
31818;SDS011;18384;48.860;9.188;2024-01-10T01:12:43;24.80;;;11.23;;
31818;SDS011;18384;48.860;9.188;2024-01-10T01:15:09;21.77;;;11.07;;
31818;SDS011;18384;48.860;9.188;2024-01-10T01:17:35;24.15;;;11.80;;
31818;SDS011;18384;48.860;9.188;2024-01-10T01:20:01;24.27;;;11.27;;
31818;SDS011;18384;48.860;9.188;2024-01-10T01:22:29;21.27;;;10.25;;
31818;SDS011;18384;48.860;9.188;2024-01-10T01:24:56;22.15;;;10.68;;
31818;SDS011;18384;48.860;9.188;2024-01-10T01:27:22;25.15;;;10.13;;
31818;SDS011;18384;48.860;9.188;2024-01-10T01:32:14;24.17;;;11.25;;
31818;SDS011;18384;48.860;9.188;2024-01-10T01:34:40;26.27;;;11.68;;
31818;SDS011;18384;48.860;9.188;2024-01-10T01:37:07;24.50;;;11.57;;
31818;SDS011;18384;48.860;9.188;2024-01-10T01:39:33;28.25;;;11.07;;
31818;SDS011;18384;48.860;9.188;2024-01-10T01:41:59;20.80;;;12.15;;
31818;SDS011;18384;48.860;9.188;2024-01-10T01:44:25;24.42;;;11.38;;
31818;SDS011;18384;48.860;9.188;2024-01-10T01:46:51;28.83;;;11.57;;
31818;SDS011;18384;48.860;9.188;2024-01-10T01:49:17;24.25;;;11.00;;
31818;SDS011;18384;48.860;9.188;2024-01-10T01:54:09;30.27;;;11.80;;
31818;SDS011;18384;48.860;9.188;2024-01-10T01:56:36;27.85;;;11.45;;
31818;SDS011;18384;48.860;9.188;2024-01-10T01:59:04;28.75;;;11.07;;
31818;SDS011;18384;48.860;9.188;2024-01-10T02:01:30;24.63;;;10.60;;
31818;SDS011;18384;48.860;9.188;2024-01-10T02:06:22;24.35;;;10.95;;
31818;SDS011;18384;48.860;9.188;2024-01-10T02:08:49;21.33;;;10.98;;
31818;SDS011;18384;48.860;9.188;2024-01-10T02:11:17;27.00;;;11.00;;
31818;SDS011;18384;48.860;9.188;2024-01-10T02:13:44;23.00;;;10.63;;
31818;SDS011;18384;48.860;9.188;2024-01-10T02:18:37;22.25;;;11.10;;
31818;SDS011;18384;48.860;9.188;2024-01-10T02:21:04;25.55;;;10.85;;
31818;SDS011;18384;48.860;9.188;2024-01-10T02:23:30;22.23;;;10.63;;
31818;SDS011;18384;48.860;9.188;2024-01-10T02:25:56;24.50;;;10.70;;
31818;SDS011;18384;48.860;9.188;2024-01-10T02:30:49;22.62;;;10.25;;
31818;SDS011;18384;48.860;9.188;2024-01-10T02:33:16;29.37;;;11.48;;
31818;SDS011;18384;48.860;9.188;2024-01-10T02:35:42;26.67;;;12.10;;
31818;SDS011;18384;48.860;9.188;2024-01-10T02:38:08;26.52;;;12.95;;
31818;SDS011;18384;48.860;9.188;2024-01-10T02:40:35;27.13;;;11.52;;
31818;SDS011;18384;48.860;9.188;2024-01-10T02:43:01;24.37;;;11.70;;
31818;SDS011;18384;48.860;9.188;2024-01-10T02:45:27;23.98;;;10.30;;
31818;SDS011;18384;48.860;9.188;2024-01-10T02:47:53;23.45;;;11.07;;
31818;SDS011;18384;48.860;9.188;2024-01-10T02:50:19;23.02;;;11.40;;
31818;SDS011;18384;48.860;9.188;2024-01-10T02:55:12;35.22;;;13.35;;
31818;SDS011;18384;48.860;9.188;2024-01-10T02:57:38;22.00;;;11.65;;
31818;SDS011;18384;48.860;9.188;2024-01-10T03:00:04;25.58;;;12.00;;
31818;SDS011;18384;48.860;9.188;2024-01-10T03:02:31;25.37;;;11.07;;
31818;SDS011;18384;48.860;9.188;2024-01-10T03:04:57;26.15;;;11.10;;
31818;SDS011;18384;48.860;9.188;2024-01-10T03:07:24;26.02;;;11.12;;
31818;SDS011;18384;48.860;9.188;2024-01-10T03:09:50;30.27;;;12.27;;
31818;SDS011;18384;48.860;9.188;2024-01-10T03:12:16;25.12;;;11.02;;
31818;SDS011;18384;48.860;9.188;2024-01-10T03:14:42;24.58;;;11.60;;
31818;SDS011;18384;48.860;9.188;2024-01-10T03:17:09;22.20;;;10.93;;
31818;SDS011;18384;48.860;9.188;2024-01-10T03:19:35;23.00;;;10.80;;
31818;SDS011;18384;48.860;9.188;2024-01-10T03:22:07;24.23;;;10.90;;
31818;SDS011;18384;48.860;9.188;2024-01-10T03:24:33;26.87;;;12.52;;
31818;SDS011;18384;48.860;9.188;2024-01-10T03:26:59;23.45;;;11.70;;
31818;SDS011;18384;48.860;9.188;2024-01-10T03:29:25;22.92;;;10.85;;
31818;SDS011;18384;48.860;9.188;2024-01-10T03:31:52;25.23;;;11.55;;
31818;SDS011;18384;48.860;9.188;2024-01-10T03:34:18;26.25;;;11.93;;
31818;SDS011;18384;48.860;9.188;2024-01-10T03:36:44;27.50;;;11.38;;
31818;SDS011;18384;48.860;9.188;2024-01-10T03:39:10;24.25;;;11.73;;
31818;SDS011;18384;48.860;9.188;2024-01-10T03:41:36;25.23;;;11.85;;
31818;SDS011;18384;48.860;9.188;2024-01-10T03:44:03;28.42;;;11.45;;
31818;SDS011;18384;48.860;9.188;2024-01-10T03:48:55;21.87;;;11.07;;
31818;SDS011;18384;48.860;9.188;2024-01-10T03:51:22;26.10;;;11.85;;
31818;SDS011;18384;48.860;9.188;2024-01-10T03:53:48;25.92;;;12.93;;
31818;SDS011;18384;48.860;9.188;2024-01-10T03:56:14;27.05;;;12.48;;
31818;SDS011;18384;48.860;9.188;2024-01-10T03:58:41;28.15;;;11.93;;
31818;SDS011;18384;48.860;9.188;2024-01-10T04:01:07;28.02;;;11.77;;
31818;SDS011;18384;48.860;9.188;2024-01-10T04:03:37;27.17;;;11.57;;
31818;SDS011;18384;48.860;9.188;2024-01-10T22:34:05;60.63;;;29.73;;
31818;SDS011;18384;48.860;9.188;2024-01-10T22:36:31;64.45;;;29.23;;
31818;SDS011;18384;48.860;9.188;2024-01-10T22:38:57;60.70;;;29.37;;
31818;SDS011;18384;48.860;9.188;2024-01-10T22:41:23;60.05;;;30.35;;
31818;SDS011;18384;48.860;9.188;2024-01-10T22:43:50;57.85;;;30.05;;
31818;SDS011;18384;48.860;9.188;2024-01-10T22:46:16;59.20;;;30.17;;
31818;SDS011;18384;48.860;9.188;2024-01-10T22:48:42;57.75;;;29.95;;
31818;SDS011;18384;48.860;9.188;2024-01-10T22:51:08;62.45;;;29.80;;
31818;SDS011;18384;48.860;9.188;2024-01-10T22:53:34;60.25;;;30.48;;
31818;SDS011;18384;48.860;9.188;2024-01-10T22:56:00;55.22;;;30.02;;
31818;SDS011;18384;48.860;9.188;2024-01-10T22:58:28;60.10;;;29.65;;
31818;SDS011;18384;48.860;9.188;2024-01-10T23:00:55;59.85;;;29.17;;
31818;SDS011;18384;48.860;9.188;2024-01-10T23:03:21;61.00;;;31.25;;
31818;SDS011;18384;48.860;9.188;2024-01-10T23:05:47;62.35;;;30.55;;
31818;SDS011;18384;48.860;9.188;2024-01-10T23:08:13;67.00;;;32.45;;
31818;SDS011;18384;48.860;9.188;2024-01-10T23:10:39;57.67;;;29.10;;
31818;SDS011;18384;48.860;9.188;2024-01-10T23:15:31;49.85;;;28.10;;
31818;SDS011;18384;48.860;9.188;2024-01-10T23:17:58;60.60;;;30.48;;
31818;SDS011;18384;48.860;9.188;2024-01-10T23:22:50;62.92;;;30.80;;
31818;SDS011;18384;48.860;9.188;2024-01-10T23:25:16;59.30;;;29.70;;
31818;SDS011;18384;48.860;9.188;2024-01-10T23:27:42;62.47;;;29.02;;
31818;SDS011;18384;48.860;9.188;2024-01-10T23:32:36;67.75;;;29.92;;
31818;SDS011;18384;48.860;9.188;2024-01-10T23:35:02;56.03;;;28.55;;
31818;SDS011;18384;48.860;9.188;2024-01-10T23:37:28;57.95;;;28.58;;
31818;SDS011;18384;48.860;9.188;2024-01-10T23:39:54;63.30;;;29.55;;
31818;SDS011;18384;48.860;9.188;2024-01-10T23:42:21;69.35;;;32.33;;
31818;SDS011;18384;48.860;9.188;2024-01-10T23:44:47;65.95;;;30.88;;
31818;SDS011;18384;48.860;9.188;2024-01-10T23:47:13;60.12;;;30.55;;
31818;SDS011;18384;48.860;9.188;2024-01-10T23:49:39;56.37;;;28.08;;
31818;SDS011;18384;48.860;9.188;2024-01-10T23:52:05;59.97;;;30.33;;
31818;SDS011;18384;48.860;9.188;2024-01-10T23:54:31;64.37;;;30.23;;
31818;SDS011;18384;48.860;9.188;2024-01-10T23:56:57;58.90;;;29.37;;
31818;SDS011;18384;48.860;9.188;2024-01-10T23:59:23;62.78;;;30.60;;
